URWW Airport Information

Runway Information
Runway 08 Length 1595 ft width 350 ft
Elevation 0 ft Threshold 0 ft Heading 84
Runway 26 Length 1595 ft Width 350 ft
Elevation 0 ft Threshold 0 ft Heading 264
Runway 11 Length 8101 ft width 161 ft
Elevation 430 ft Threshold 0 ft Heading 120
Runway 29 Length 8101 ft Width 161 ft
Elevation 482 ft Threshold 0 ft Heading 300
Runway 11R Length 5575 ft width 330 ft
Elevation 0 ft Threshold 0 ft Heading 120
Runway 29L Length 5575 ft Width 330 ft
Elevation 0 ft Threshold 0 ft Heading 300
Airport Frequencies
Type APP Name VOLGOGRAD Frequency 125.3 MHZ
Type ATIS Name VOLOGRAD A Frequency 132.8 MHZ
Type GCA Name GCA Frequency 128 MHZ
Type GND Name GND Frequency 119 MHZ
Type RDR Name ASR Frequency 122 MHZ
Type TWR Name TWR Frequency 128 MHZ
Airport Navaids
Type NDB Name Gumrak Frequency 325 KHZ
Type NDB Name Gumrak Frequency 325 KHZ
Airport Weather Information & NOTAM
ADDS - METARS form results

(1018 UTC 16 November 2018)
Data provider http://aviationweather.gov/metar/data/
 
METAR text: URWW 161000Z 08012MPS CAVOK M00/M13 Q1035 R06/010070 NOSIG
Conditions at: URWW (VOLGOGRAD/GUMRAK, RU) observed 1000 UTC 16 November 2018
Temperature: 0.0°C (32°F)
Dewpoint: -13.0°C ( 9°F) [RH = 37%]
Pressure (altimeter): 30.56 inches Hg (1035.0 mb)
Winds: from the E (80 degrees) at 26 MPH (23 knots; 11.8 m/s)
Visibility: 6 or more miles (10+ km)
Ceiling: ceiling and visibility are OK
Clouds: unknown
Weather: no significant weather observed at this time

METAR text: URWW 160930Z 08012MPS CAVOK M01/M13 Q1035 R06/010070 NOSIG
Conditions at: URWW (VOLGOGRAD/GUMRAK, RU) observed 0930 UTC 16 November 2018
Temperature: -1.0°C (30°F)
Dewpoint: -13.0°C ( 9°F) [RH = 40%]
Pressure (altimeter): 30.56 inches Hg (1035.0 mb)
Winds: from the E (80 degrees) at 26 MPH (23 knots; 11.8 m/s)
Visibility: 6 or more miles (10+ km)
Ceiling: ceiling and visibility are OK
Clouds: unknown
Weather: no significant weather observed at this time

Forecast for: URWW (VOLGOGRAD/GUMRAK, RU)
Text: TAF URWW 160757Z 1609/1618 07010G16MPS 9999 BKN011 BKN020CB
Forecast period: 0900 to 1800 UTC 16 November 2018
Forecast type: FROM: standard forecast or significant change
Winds: from the ENE (70 degrees) at 22 MPH (19 knots; 9.8 m/s)
gusting to 36 MPH (31 knots; 15.9 m/s)
Visibility: 6 or more miles 10+ km)
Ceiling: 1100 feet AGL
Clouds: broken clouds at 1100 feet AGL
broken clouds at 2000 feet AGL
Weather: no significant weather forecast for this period
Text: TEMPO 1609/1618 10012G18MPS 3100 -SHSN BLSN
Forecast period: 0900 to 1800 UTC 16 November 2018
Forecast type: TEMPORARY: The following changes expected for less than half the time period
Winds: from the E (100 degrees) at 26 MPH (23 knots; 11.8 m/s)
gusting to 40 MPH (35 knots; 18.0 m/s)
Visibility: 1.93 miles (3.11 km)
Ceiling: unknown
Clouds: missing
Weather: -SHSN BLSN  (light snow showers, blowing snow)